Weather at Hede Air Base [CLOSED]

Public forecast

Using degrees Celsius for public forecast. Weather courtesy of forecast.io.

Closest aviation weather report (METAR) to Hede Air Base

Report is more than 6 hours old.

Closest report is Luleå Airport, 23.9 nm (44.3 km) SE.

2022/11/14 15:20 (retrieved 2 years ago)

ESPA 141520Z 34004KT CAVOK M06/M07 Q1020

Closest aviation forecast (TAF) to Hede Air Base

Forecast is more than 12 hours old.

Closest forecast is Oulu Airport, 111.4 nm (206.3 km) ESE.

2023/02/22 18:42 (retrieved 1 year ago)

TAF EFOU 221726Z 2218/2318 15006KT CAVOK BECMG 2303/2304 4000 -SN TEMPO 2304/2312 1500 SN BECMG 2310/2312 BKN012 TEMPO 2312/2315 2000 BKN008 BECMG 2315/2317 1200 BR BKN002